sensor_id;sensor_type;location;lat;lon;timestamp;temperature;humidity
55211;DHT22;41082;52.822;6.666;2022-10-24T00:01:29;15.40;99.90
55211;DHT22;41082;52.822;6.666;2022-10-24T00:03:55;15.40;99.90
55211;DHT22;41082;52.822;6.666;2022-10-24T00:06:21;15.30;99.90
55211;DHT22;41082;52.822;6.666;2022-10-24T00:08:47;15.30;99.90
55211;DHT22;41082;52.822;6.666;2022-10-24T00:11:30;15.30;99.90
55211;DHT22;41082;52.822;6.666;2022-10-24T00:13:56;15.30;99.90
55211;DHT22;41082;52.822;6.666;2022-10-24T00:16:22;15.30;99.90
55211;DHT22;41082;52.822;6.666;2022-10-24T00:18:48;15.30;99.90
55211;DHT22;41082;52.822;6.666;2022-10-24T00:21:14;15.30;99.90
55211;DHT22;41082;52.822;6.666;2022-10-24T00:23:39;15.30;99.90
55211;DHT22;41082;52.822;6.666;2022-10-24T00:26:06;15.30;99.90
55211;DHT22;41082;52.822;6.666;2022-10-24T00:28:34;15.30;99.90
55211;DHT22;41082;52.822;6.666;2022-10-24T00:31:00;15.30;99.90
55211;DHT22;41082;52.822;6.666;2022-10-24T00:33:26;15.20;99.90
55211;DHT22;41082;52.822;6.666;2022-10-24T00:35:52;15.30;99.90
55211;DHT22;41082;52.822;6.666;2022-10-24T00:38:18;15.30;99.90
55211;DHT22;41082;52.822;6.666;2022-10-24T00:40:44;15.30;99.90
55211;DHT22;41082;52.822;6.666;2022-10-24T00:43:17;15.30;99.90
55211;DHT22;41082;52.822;6.666;2022-10-24T00:45:51;15.30;99.90
55211;DHT22;41082;52.822;6.666;2022-10-24T00:50:56;15.20;99.90
55211;DHT22;41082;52.822;6.666;2022-10-24T00:53:22;15.30;99.90
55211;DHT22;41082;52.822;6.666;2022-10-24T00:55:52;15.30;99.90
55211;DHT22;41082;52.822;6.666;2022-10-24T00:58:20;15.30;99.90
55211;DHT22;41082;52.822;6.666;2022-10-24T01:00:46;15.30;99.90
55211;DHT22;41082;52.822;6.666;2022-10-24T01:03:12;15.30;99.90
55211;DHT22;41082;52.822;6.666;2022-10-24T01:08:41;15.30;99.90
55211;DHT22;41082;52.822;6.666;2022-10-24T01:11:32;15.40;99.90
55211;DHT22;41082;52.822;6.666;2022-10-24T01:16:57;15.40;99.90
55211;DHT22;41082;52.822;6.666;2022-10-24T01:28:15;15.50;99.90
55211;DHT22;41082;52.822;6.666;2022-10-24T01:30:45;15.40;99.90
55211;DHT22;41082;52.822;6.666;2022-10-24T01:35:51;15.50;99.90
55211;DHT22;41082;52.822;6.666;2022-10-24T01:38:33;15.40;99.90
55211;DHT22;41082;52.822;6.666;2022-10-24T01:43:35;15.50;99.90
55211;DHT22;41082;52.822;6.666;2022-10-24T01:46:07;15.50;99.90
55211;DHT22;41082;52.822;6.666;2022-10-24T01:48:37;15.50;99.90
55211;DHT22;41082;52.822;6.666;2022-10-24T01:51:05;15.40;99.90
55211;DHT22;41082;52.822;6.666;2022-10-24T01:53:33;15.40;99.90
55211;DHT22;41082;52.822;6.666;2022-10-24T01:56:00;15.40;99.90
55211;DHT22;41082;52.822;6.666;2022-10-24T01:58:26;15.40;99.90
55211;DHT22;41082;52.822;6.666;2022-10-24T02:00:55;15.40;99.90
55211;DHT22;41082;52.822;6.666;2022-10-24T02:05:57;15.40;99.90
55211;DHT22;41082;52.822;6.666;2022-10-24T02:08:31;15.40;99.90
55211;DHT22;41082;52.822;6.666;2022-10-24T02:11:01;15.40;99.90
55211;DHT22;41082;52.822;6.666;2022-10-24T02:13:40;15.40;99.90
55211;DHT22;41082;52.822;6.666;2022-10-24T02:16:09;15.40;99.90
55211;DHT22;41082;52.822;6.666;2022-10-24T02:18:36;15.30;99.90
55211;DHT22;41082;52.822;6.666;2022-10-24T02:29:22;15.40;99.90
55211;DHT22;41082;52.822;6.666;2022-10-24T02:31:55;15.30;99.90
55211;DHT22;41082;52.822;6.666;2022-10-24T02:34:24;15.30;99.90
55211;DHT22;41082;52.822;6.666;2022-10-24T02:36:52;15.30;99.90
55211;DHT22;41082;52.822;6.666;2022-10-24T02:39:19;15.40;99.90
55211;DHT22;41082;52.822;6.666;2022-10-24T02:41:47;15.40;99.90
55211;DHT22;41082;52.822;6.666;2022-10-24T02:44:15;15.30;99.90
55211;DHT22;41082;52.822;6.666;2022-10-24T02:46:44;15.30;99.90
55211;DHT22;41082;52.822;6.666;2022-10-24T02:49:11;15.30;99.90
55211;DHT22;41082;52.822;6.666;2022-10-24T02:51:39;15.30;99.90
55211;DHT22;41082;52.822;6.666;2022-10-24T02:54:05;15.30;99.90
55211;DHT22;41082;52.822;6.666;2022-10-24T02:56:32;15.30;99.90
55211;DHT22;41082;52.822;6.666;2022-10-24T02:58:58;15.30;99.90
55211;DHT22;41082;52.822;6.666;2022-10-24T03:01:23;15.30;99.90
55211;DHT22;41082;52.822;6.666;2022-10-24T03:03:49;15.30;99.90
55211;DHT22;41082;52.822;6.666;2022-10-24T03:06:15;15.20;99.90
55211;DHT22;41082;52.822;6.666;2022-10-24T03:08:40;15.20;99.90
55211;DHT22;41082;52.822;6.666;2022-10-24T03:11:06;15.20;99.90
55211;DHT22;41082;52.822;6.666;2022-10-24T03:13:32;15.10;99.90
55211;DHT22;41082;52.822;6.666;2022-10-24T03:15:57;15.10;99.90
55211;DHT22;41082;52.822;6.666;2022-10-24T03:18:23;15.10;99.90
55211;DHT22;41082;52.822;6.666;2022-10-24T03:20:49;15.10;99.90
55211;DHT22;41082;52.822;6.666;2022-10-24T03:23:14;15.10;99.90
55211;DHT22;41082;52.822;6.666;2022-10-24T03:25:41;15.10;99.90
55211;DHT22;41082;52.822;6.666;2022-10-24T03:28:06;15.10;99.90
55211;DHT22;41082;52.822;6.666;2022-10-24T03:30:32;15.10;99.90
55211;DHT22;41082;52.822;6.666;2022-10-24T03:32:57;15.10;99.90
55211;DHT22;41082;52.822;6.666;2022-10-24T03:35:23;15.10;99.90
55211;DHT22;41082;52.822;6.666;2022-10-24T03:37:49;15.10;99.90
55211;DHT22;41082;52.822;6.666;2022-10-24T03:40:14;15.10;99.90
55211;DHT22;41082;52.822;6.666;2022-10-24T03:42:40;15.10;99.90
55211;DHT22;41082;52.822;6.666;2022-10-24T03:45:06;15.10;99.90
55211;DHT22;41082;52.822;6.666;2022-10-24T03:47:32;15.20;99.90
55211;DHT22;41082;52.822;6.666;2022-10-24T03:49:58;15.20;99.90
55211;DHT22;41082;52.822;6.666;2022-10-24T03:52:23;15.20;99.90
55211;DHT22;41082;52.822;6.666;2022-10-24T03:54:49;15.20;99.90
55211;DHT22;41082;52.822;6.666;2022-10-24T03:57:15;15.20;99.90
55211;DHT22;41082;52.822;6.666;2022-10-24T03:59:40;15.20;99.90
55211;DHT22;41082;52.822;6.666;2022-10-24T04:02:06;15.20;99.90
55211;DHT22;41082;52.822;6.666;2022-10-24T04:04:32;15.20;99.90
55211;DHT22;41082;52.822;6.666;2022-10-24T04:06:58;15.20;99.90
55211;DHT22;41082;52.822;6.666;2022-10-24T04:09:25;15.20;99.90
55211;DHT22;41082;52.822;6.666;2022-10-24T04:11:51;15.10;99.90
55211;DHT22;41082;52.822;6.666;2022-10-24T04:14:19;15.10;99.90
55211;DHT22;41082;52.822;6.666;2022-10-24T04:16:44;15.10;99.90
55211;DHT22;41082;52.822;6.666;2022-10-24T04:19:10;15.10;99.90
55211;DHT22;41082;52.822;6.666;2022-10-24T04:21:36;15.10;99.90
55211;DHT22;41082;52.822;6.666;2022-10-24T04:24:02;15.10;99.90
55211;DHT22;41082;52.822;6.666;2022-10-24T04:26:28;15.10;99.90
55211;DHT22;41082;52.822;6.666;2022-10-24T04:28:53;15.10;99.90
55211;DHT22;41082;52.822;6.666;2022-10-24T04:31:19;15.10;99.90
55211;DHT22;41082;52.822;6.666;2022-10-24T04:33:45;15.10;99.90
55211;DHT22;41082;52.822;6.666;2022-10-24T04:36:10;15.10;99.90
55211;DHT22;41082;52.822;6.666;2022-10-24T04:38:36;15.10;99.90
55211;DHT22;41082;52.822;6.666;2022-10-24T04:41:01;15.10;99.90
55211;DHT22;41082;52.822;6.666;2022-10-24T04:43:27;15.00;99.90
55211;DHT22;41082;52.822;6.666;2022-10-24T04:45:53;15.00;99.90
55211;DHT22;41082;52.822;6.666;2022-10-24T04:48:18;15.00;99.90
55211;DHT22;41082;52.822;6.666;2022-10-24T04:50:45;15.00;99.90
55211;DHT22;41082;52.822;6.666;2022-10-24T04:53:11;15.00;99.90
55211;DHT22;41082;52.822;6.666;2022-10-24T04:55:37;15.00;99.90
55211;DHT22;41082;52.822;6.666;2022-10-24T04:58:03;15.00;99.90
55211;DHT22;41082;52.822;6.666;2022-10-24T05:00:29;15.00;99.90
55211;DHT22;41082;52.822;6.666;2022-10-24T05:02:55;15.00;99.90
55211;DHT22;41082;52.822;6.666;2022-10-24T05:05:21;15.00;99.90
55211;DHT22;41082;52.822;6.666;2022-10-24T05:07:46;15.00;99.90
55211;DHT22;41082;52.822;6.666;2022-10-24T05:10:13;15.00;99.90
55211;DHT22;41082;52.822;6.666;2022-10-24T05:12:39;14.90;99.90
55211;DHT22;41082;52.822;6.666;2022-10-24T05:15:06;14.90;99.90
55211;DHT22;41082;52.822;6.666;2022-10-24T05:17:32;14.90;99.90
55211;DHT22;41082;52.822;6.666;2022-10-24T05:19:58;15.00;99.90
55211;DHT22;41082;52.822;6.666;2022-10-24T05:22:24;14.90;99.90
55211;DHT22;41082;52.822;6.666;2022-10-24T05:24:49;15.00;99.90
55211;DHT22;41082;52.822;6.666;2022-10-24T05:27:16;15.00;99.90
55211;DHT22;41082;52.822;6.666;2022-10-24T05:29:46;15.00;99.90
55211;DHT22;41082;52.822;6.666;2022-10-24T05:32:11;14.90;99.90
55211;DHT22;41082;52.822;6.666;2022-10-24T05:34:37;14.90;99.90
55211;DHT22;41082;52.822;6.666;2022-10-24T05:37:02;14.90;99.90
55211;DHT22;41082;52.822;6.666;2022-10-24T05:39:28;14.90;99.90
55211;DHT22;41082;52.822;6.666;2022-10-24T05:41:53;14.80;99.90
55211;DHT22;41082;52.822;6.666;2022-10-24T05:44:19;14.80;99.90
55211;DHT22;41082;52.822;6.666;2022-10-24T05:46:44;14.80;99.90
55211;DHT22;41082;52.822;6.666;2022-10-24T05:49:12;14.80;99.90
55211;DHT22;41082;52.822;6.666;2022-10-24T05:51:38;14.80;99.90
55211;DHT22;41082;52.822;6.666;2022-10-24T05:54:03;14.80;99.90
55211;DHT22;41082;52.822;6.666;2022-10-24T05:56:29;14.80;99.90
55211;DHT22;41082;52.822;6.666;2022-10-24T05:58:56;14.90;99.90
55211;DHT22;41082;52.822;6.666;2022-10-24T06:01:22;14.90;99.90
55211;DHT22;41082;52.822;6.666;2022-10-24T06:03:48;14.80;99.90
55211;DHT22;41082;52.822;6.666;2022-10-24T06:06:13;14.90;99.90
55211;DHT22;41082;52.822;6.666;2022-10-24T06:08:39;14.90;99.90
55211;DHT22;41082;52.822;6.666;2022-10-24T06:11:08;14.90;99.90
55211;DHT22;41082;52.822;6.666;2022-10-24T06:13:35;14.90;99.90
55211;DHT22;41082;52.822;6.666;2022-10-24T06:16:00;14.90;99.90
55211;DHT22;41082;52.822;6.666;2022-10-24T06:18:26;14.90;99.90
55211;DHT22;41082;52.822;6.666;2022-10-24T06:20:52;15.00;99.90
55211;DHT22;41082;52.822;6.666;2022-10-24T06:23:18;14.90;99.90
55211;DHT22;41082;52.822;6.666;2022-10-24T06:25:44;14.90;99.90
55211;DHT22;41082;52.822;6.666;2022-10-24T06:28:10;14.90;99.90
55211;DHT22;41082;52.822;6.666;2022-10-24T06:30:38;14.90;99.90
55211;DHT22;41082;52.822;6.666;2022-10-24T06:33:04;14.90;99.90
55211;DHT22;41082;52.822;6.666;2022-10-24T06:35:29;14.90;99.90
55211;DHT22;41082;52.822;6.666;2022-10-24T06:37:55;14.90;99.90
55211;DHT22;41082;52.822;6.666;2022-10-24T06:40:21;14.90;99.90
55211;DHT22;41082;52.822;6.666;2022-10-24T06:42:46;14.90;99.90
55211;DHT22;41082;52.822;6.666;2022-10-24T06:45:12;14.90;99.90
55211;DHT22;41082;52.822;6.666;2022-10-24T06:47:38;14.90;99.90
55211;DHT22;41082;52.822;6.666;2022-10-24T06:50:04;14.90;99.90
55211;DHT22;41082;52.822;6.666;2022-10-24T06:52:30;14.80;99.90
55211;DHT22;41082;52.822;6.666;2022-10-24T06:54:56;14.80;99.90
55211;DHT22;41082;52.822;6.666;2022-10-24T06:57:21;14.90;99.90
55211;DHT22;41082;52.822;6.666;2022-10-24T06:59:47;14.80;99.90
55211;DHT22;41082;52.822;6.666;2022-10-24T07:02:14;14.80;99.90
55211;DHT22;41082;52.822;6.666;2022-10-24T07:04:40;14.80;99.90
55211;DHT22;41082;52.822;6.666;2022-10-24T07:07:06;14.80;99.90
55211;DHT22;41082;52.822;6.666;2022-10-24T07:09:32;14.80;99.90
55211;DHT22;41082;52.822;6.666;2022-10-24T07:11:57;14.90;99.90
55211;DHT22;41082;52.822;6.666;2022-10-24T07:14:23;14.90;99.90
55211;DHT22;41082;52.822;6.666;2022-10-24T07:16:50;15.00;99.90
55211;DHT22;41082;52.822;6.666;2022-10-24T07:19:16;15.00;99.90
55211;DHT22;41082;52.822;6.666;2022-10-24T07:21:42;15.00;99.90
55211;DHT22;41082;52.822;6.666;2022-10-24T07:24:11;15.00;99.90
55211;DHT22;41082;52.822;6.666;2022-10-24T07:26:37;15.00;99.90
55211;DHT22;41082;52.822;6.666;2022-10-24T07:29:04;15.00;99.90
55211;DHT22;41082;52.822;6.666;2022-10-24T07:31:31;15.00;99.90
55211;DHT22;41082;52.822;6.666;2022-10-24T07:33:59;15.10;99.90
55211;DHT22;41082;52.822;6.666;2022-10-24T07:36:25;15.10;99.90
55211;DHT22;41082;52.822;6.666;2022-10-24T07:38:53;15.20;99.90
55211;DHT22;41082;52.822;6.666;2022-10-24T07:41:19;15.20;99.90
55211;DHT22;41082;52.822;6.666;2022-10-24T07:43:45;15.20;99.90
55211;DHT22;41082;52.822;6.666;2022-10-24T07:46:13;15.30;99.90
55211;DHT22;41082;52.822;6.666;2022-10-24T07:48:39;15.30;99.90
55211;DHT22;41082;52.822;6.666;2022-10-24T07:51:11;15.30;99.90
55211;DHT22;41082;52.822;6.666;2022-10-24T07:53:38;15.40;99.90
55211;DHT22;41082;52.822;6.666;2022-10-24T07:56:04;15.40;99.90
55211;DHT22;41082;52.822;6.666;2022-10-24T07:58:34;15.40;99.90
55211;DHT22;41082;52.822;6.666;2022-10-24T08:01:21;15.50;99.90
55211;DHT22;41082;52.822;6.666;2022-10-24T08:03:47;15.50;99.90
55211;DHT22;41082;52.822;6.666;2022-10-24T08:06:15;15.50;99.90
55211;DHT22;41082;52.822;6.666;2022-10-24T08:08:42;15.60;99.90
55211;DHT22;41082;52.822;6.666;2022-10-24T08:11:26;15.60;99.90
55211;DHT22;41082;52.822;6.666;2022-10-24T08:13:53;15.70;99.90
55211;DHT22;41082;52.822;6.666;2022-10-24T08:16:20;15.80;99.90
55211;DHT22;41082;52.822;6.666;2022-10-24T08:18:47;15.80;99.90
55211;DHT22;41082;52.822;6.666;2022-10-24T08:21:15;15.90;99.90
55211;DHT22;41082;52.822;6.666;2022-10-24T08:23:43;15.90;99.90
55211;DHT22;41082;52.822;6.666;2022-10-24T08:26:12;16.00;99.90
55211;DHT22;41082;52.822;6.666;2022-10-24T08:28:37;16.00;99.90
55211;DHT22;41082;52.822;6.666;2022-10-24T08:31:10;16.10;99.90
55211;DHT22;41082;52.822;6.666;2022-10-24T08:33:36;16.20;99.90
55211;DHT22;41082;52.822;6.666;2022-10-24T08:36:05;16.20;99.90
55211;DHT22;41082;52.822;6.666;2022-10-24T08:38:31;16.30;99.90
55211;DHT22;41082;52.822;6.666;2022-10-24T08:40:58;16.40;99.90
55211;DHT22;41082;52.822;6.666;2022-10-24T08:43:24;16.50;99.90
55211;DHT22;41082;52.822;6.666;2022-10-24T08:48:26;16.50;99.90
55211;DHT22;41082;52.822;6.666;2022-10-24T08:50:58;16.60;99.90
55211;DHT22;41082;52.822;6.666;2022-10-24T08:53:27;16.60;99.90
55211;DHT22;41082;52.822;6.666;2022-10-24T08:55:54;16.60;99.90
55211;DHT22;41082;52.822;6.666;2022-10-24T08:58:30;16.60;99.90
55211;DHT22;41082;52.822;6.666;2022-10-24T09:01:01;16.60;99.90
55211;DHT22;41082;52.822;6.666;2022-10-24T09:03:45;16.60;99.90
55211;DHT22;41082;52.822;6.666;2022-10-24T09:06:16;16.60;99.90
55211;DHT22;41082;52.822;6.666;2022-10-24T09:14:20;16.60;99.90
55211;DHT22;41082;52.822;6.666;2022-10-24T09:19:40;16.60;99.90
55211;DHT22;41082;52.822;6.666;2022-10-24T09:22:10;16.60;99.90
55211;DHT22;41082;52.822;6.666;2022-10-24T09:24:44;16.70;99.90
55211;DHT22;41082;52.822;6.666;2022-10-24T09:27:17;16.70;99.90
55211;DHT22;41082;52.822;6.666;2022-10-24T09:29:44;16.70;99.90
55211;DHT22;41082;52.822;6.666;2022-10-24T09:32:21;16.70;99.90
55211;DHT22;41082;52.822;6.666;2022-10-24T09:34:48;16.80;99.90
55211;DHT22;41082;52.822;6.666;2022-10-24T09:37:46;16.90;99.90
55211;DHT22;41082;52.822;6.666;2022-10-24T09:45:45;16.90;99.90
55211;DHT22;41082;52.822;6.666;2022-10-24T09:48:20;16.90;99.90
55211;DHT22;41082;52.822;6.666;2022-10-24T09:50:48;17.00;99.90
55211;DHT22;41082;52.822;6.666;2022-10-24T09:53:32;16.90;99.90
55211;DHT22;41082;52.822;6.666;2022-10-24T09:56:06;16.90;99.90
55211;DHT22;41082;52.822;6.666;2022-10-24T09:58:32;16.80;99.90
55211;DHT22;41082;52.822;6.666;2022-10-24T10:01:15;16.90;99.90
55211;DHT22;41082;52.822;6.666;2022-10-24T10:03:42;16.80;99.90
55211;DHT22;41082;52.822;6.666;2022-10-24T10:06:17;16.90;99.90
55211;DHT22;41082;52.822;6.666;2022-10-24T10:08:53;17.00;99.90
55211;DHT22;41082;52.822;6.666;2022-10-24T10:11:28;17.10;99.90
55211;DHT22;41082;52.822;6.666;2022-10-24T10:13:58;17.10;99.90
55211;DHT22;41082;52.822;6.666;2022-10-24T10:16:38;17.20;99.90
55211;DHT22;41082;52.822;6.666;2022-10-24T10:19:21;17.10;99.90
55211;DHT22;41082;52.822;6.666;2022-10-24T10:22:05;17.10;99.90
55211;DHT22;41082;52.822;6.666;2022-10-24T10:27:00;17.10;99.90
55211;DHT22;41082;52.822;6.666;2022-10-24T10:29:26;17.10;99.90
55211;DHT22;41082;52.822;6.666;2022-10-24T10:32:33;17.10;99.90
55211;DHT22;41082;52.822;6.666;2022-10-24T10:35:05;17.20;99.90
55211;DHT22;41082;52.822;6.666;2022-10-24T10:37:34;17.30;99.90
55211;DHT22;41082;52.822;6.666;2022-10-24T10:43:00;17.30;99.90
55211;DHT22;41082;52.822;6.666;2022-10-24T10:56:16;17.30;99.90
55211;DHT22;41082;52.822;6.666;2022-10-24T11:01:53;17.30;99.90
55211;DHT22;41082;52.822;6.666;2022-10-24T11:05:00;17.40;99.90
55211;DHT22;41082;52.822;6.666;2022-10-24T11:10:08;17.40;99.90
55211;DHT22;41082;52.822;6.666;2022-10-24T11:12:42;17.50;99.90
55211;DHT22;41082;52.822;6.666;2022-10-24T11:15:23;17.50;99.90
55211;DHT22;41082;52.822;6.666;2022-10-24T11:26:01;17.50;99.90
55211;DHT22;41082;52.822;6.666;2022-10-24T11:28:37;17.50;99.90
55211;DHT22;41082;52.822;6.666;2022-10-24T11:31:17;17.50;99.90
55211;DHT22;41082;52.822;6.666;2022-10-24T11:33:56;17.40;99.90
55211;DHT22;41082;52.822;6.666;2022-10-24T11:39:25;17.40;99.90
55211;DHT22;41082;52.822;6.666;2022-10-24T11:42:11;17.40;99.90
55211;DHT22;41082;52.822;6.666;2022-10-24T11:47:30;17.40;99.90
55211;DHT22;41082;52.822;6.666;2022-10-24T11:52:41;17.50;99.90
55211;DHT22;41082;52.822;6.666;2022-10-24T11:55:16;17.50;99.90
55211;DHT22;41082;52.822;6.666;2022-10-24T11:57:44;17.60;99.90
55211;DHT22;41082;52.822;6.666;2022-10-24T12:00:20;17.60;99.90
55211;DHT22;41082;52.822;6.666;2022-10-24T12:02:58;17.60;99.90
55211;DHT22;41082;52.822;6.666;2022-10-24T12:09:18;17.80;99.90
55211;DHT22;41082;52.822;6.666;2022-10-24T12:11:47;17.80;99.90
55211;DHT22;41082;52.822;6.666;2022-10-24T12:17:27;17.80;99.90
55211;DHT22;41082;52.822;6.666;2022-10-24T12:19:56;17.70;99.90
55211;DHT22;41082;52.822;6.666;2022-10-24T12:22:36;17.70;99.90
55211;DHT22;41082;52.822;6.666;2022-10-24T12:27:43;17.50;99.90
55211;DHT22;41082;52.822;6.666;2022-10-24T12:35:29;17.40;99.90
55211;DHT22;41082;52.822;6.666;2022-10-24T12:37:49;17.40;99.90
55211;DHT22;41082;52.822;6.666;2022-10-24T12:48:50;17.40;99.90
55211;DHT22;41082;52.822;6.666;2022-10-24T12:51:37;17.40;99.90
55211;DHT22;41082;52.822;6.666;2022-10-24T13:13:42;17.10;99.90
55211;DHT22;41082;52.822;6.666;2022-10-24T13:16:32;17.10;99.90
55211;DHT22;41082;52.822;6.666;2022-10-24T13:21:49;17.10;99.90
55211;DHT22;41082;52.822;6.666;2022-10-24T13:26:48;17.10;99.90
55211;DHT22;41082;52.822;6.666;2022-10-24T13:31:54;17.10;99.90
55211;DHT22;41082;52.822;6.666;2022-10-24T13:40:31;17.00;99.90
55211;DHT22;41082;52.822;6.666;2022-10-24T13:42:39;17.00;99.90
55211;DHT22;41082;52.822;6.666;2022-10-24T13:48:08;17.00;99.90
55211;DHT22;41082;52.822;6.666;2022-10-24T13:50:39;17.00;99.90
55211;DHT22;41082;52.822;6.666;2022-10-24T13:53:18;17.00;99.90
55211;DHT22;41082;52.822;6.666;2022-10-24T13:55:47;17.00;99.90
55211;DHT22;41082;52.822;6.666;2022-10-24T13:58:24;17.00;99.90
55211;DHT22;41082;52.822;6.666;2022-10-24T14:01:02;17.00;99.90
55211;DHT22;41082;52.822;6.666;2022-10-24T14:03:30;17.00;99.90
55211;DHT22;41082;52.822;6.666;2022-10-24T14:05:59;17.00;99.90
55211;DHT22;41082;52.822;6.666;2022-10-24T14:08:34;16.90;99.90
55211;DHT22;41082;52.822;6.666;2022-10-24T14:11:03;16.90;99.90
55211;DHT22;41082;52.822;6.666;2022-10-24T14:13:32;16.90;99.90
55211;DHT22;41082;52.822;6.666;2022-10-24T14:16:04;16.90;99.90
55211;DHT22;41082;52.822;6.666;2022-10-24T14:18:31;16.80;99.90
55211;DHT22;41082;52.822;6.666;2022-10-24T14:21:02;16.80;99.90
55211;DHT22;41082;52.822;6.666;2022-10-24T14:23:31;16.80;99.90
55211;DHT22;41082;52.822;6.666;2022-10-24T14:28:30;16.70;99.90
55211;DHT22;41082;52.822;6.666;2022-10-24T14:30:59;16.70;99.90
55211;DHT22;41082;52.822;6.666;2022-10-24T14:33:28;16.60;99.90
55211;DHT22;41082;52.822;6.666;2022-10-24T14:35:56;16.50;99.90
55211;DHT22;41082;52.822;6.666;2022-10-24T14:38:24;16.50;99.90
55211;DHT22;41082;52.822;6.666;2022-10-24T14:40:50;16.50;99.90
55211;DHT22;41082;52.822;6.666;2022-10-24T14:46:38;16.50;99.90
55211;DHT22;41082;52.822;6.666;2022-10-24T14:51:54;16.40;99.90
55211;DHT22;41082;52.822;6.666;2022-10-24T14:54:29;16.40;99.90
55211;DHT22;41082;52.822;6.666;2022-10-24T14:56:56;16.40;99.90
55211;DHT22;41082;52.822;6.666;2022-10-24T14:59:34;16.40;99.90
55211;DHT22;41082;52.822;6.666;2022-10-24T15:04:42;16.30;99.90
55211;DHT22;41082;52.822;6.666;2022-10-24T15:10:46;16.30;99.90
55211;DHT22;41082;52.822;6.666;2022-10-24T15:13:03;16.20;99.90
55211;DHT22;41082;52.822;6.666;2022-10-24T15:18:31;16.10;99.90
55211;DHT22;41082;52.822;6.666;2022-10-24T15:21:12;16.10;99.90
55211;DHT22;41082;52.822;6.666;2022-10-24T15:23:48;16.00;99.90
55211;DHT22;41082;52.822;6.666;2022-10-24T15:26:18;16.00;99.90
55211;DHT22;41082;52.822;6.666;2022-10-24T15:31:36;15.90;99.90
55211;DHT22;41082;52.822;6.666;2022-10-24T15:34:03;15.80;99.90
55211;DHT22;41082;52.822;6.666;2022-10-24T15:36:33;15.80;99.90
55211;DHT22;41082;52.822;6.666;2022-10-24T15:39:05;15.70;99.90
55211;DHT22;41082;52.822;6.666;2022-10-24T15:41:32;15.70;99.90
55211;DHT22;41082;52.822;6.666;2022-10-24T15:43:58;15.70;99.90
55211;DHT22;41082;52.822;6.666;2022-10-24T15:46:24;15.70;99.90
55211;DHT22;41082;52.822;6.666;2022-10-24T15:48:51;15.60;99.90
55211;DHT22;41082;52.822;6.666;2022-10-24T15:51:20;15.60;99.90
55211;DHT22;41082;52.822;6.666;2022-10-24T15:53:46;15.50;99.90
55211;DHT22;41082;52.822;6.666;2022-10-24T15:56:13;15.50;99.90
55211;DHT22;41082;52.822;6.666;2022-10-24T15:58:39;15.40;99.90
55211;DHT22;41082;52.822;6.666;2022-10-24T16:01:19;15.30;99.90
55211;DHT22;41082;52.822;6.666;2022-10-24T16:03:45;15.40;99.90
55211;DHT22;41082;52.822;6.666;2022-10-24T16:06:10;15.30;99.90
55211;DHT22;41082;52.822;6.666;2022-10-24T16:08:36;15.30;99.90
55211;DHT22;41082;52.822;6.666;2022-10-24T16:11:01;15.20;99.90
55211;DHT22;41082;52.822;6.666;2022-10-24T16:13:27;15.20;99.90
55211;DHT22;41082;52.822;6.666;2022-10-24T16:15:53;15.20;99.90
55211;DHT22;41082;52.822;6.666;2022-10-24T16:18:18;15.10;99.90
55211;DHT22;41082;52.822;6.666;2022-10-24T16:20:44;15.10;99.90
55211;DHT22;41082;52.822;6.666;2022-10-24T16:23:14;15.10;99.90
55211;DHT22;41082;52.822;6.666;2022-10-24T16:25:39;15.00;99.90
55211;DHT22;41082;52.822;6.666;2022-10-24T16:28:06;15.00;99.90
55211;DHT22;41082;52.822;6.666;2022-10-24T16:30:35;15.00;99.90
55211;DHT22;41082;52.822;6.666;2022-10-24T16:33:01;15.00;99.90
55211;DHT22;41082;52.822;6.666;2022-10-24T16:35:32;14.90;99.90
55211;DHT22;41082;52.822;6.666;2022-10-24T16:37:59;14.90;99.90
55211;DHT22;41082;52.822;6.666;2022-10-24T16:40:25;14.90;99.90
55211;DHT22;41082;52.822;6.666;2022-10-24T16:42:53;14.80;99.90
55211;DHT22;41082;52.822;6.666;2022-10-24T16:45:19;14.80;99.90
55211;DHT22;41082;52.822;6.666;2022-10-24T16:47:45;14.80;99.90
55211;DHT22;41082;52.822;6.666;2022-10-24T16:50:17;14.70;99.90
55211;DHT22;41082;52.822;6.666;2022-10-24T16:52:55;14.70;99.90
55211;DHT22;41082;52.822;6.666;2022-10-24T16:55:22;14.70;99.90
55211;DHT22;41082;52.822;6.666;2022-10-24T16:57:48;14.60;99.90
55211;DHT22;41082;52.822;6.666;2022-10-24T17:00:15;14.60;99.90
55211;DHT22;41082;52.822;6.666;2022-10-24T17:02:46;14.60;99.90
55211;DHT22;41082;52.822;6.666;2022-10-24T17:05:13;14.50;99.90
55211;DHT22;41082;52.822;6.666;2022-10-24T17:07:40;14.50;99.90
55211;DHT22;41082;52.822;6.666;2022-10-24T17:10:06;14.50;99.90
55211;DHT22;41082;52.822;6.666;2022-10-24T17:12:32;14.50;99.90
55211;DHT22;41082;52.822;6.666;2022-10-24T17:14:58;14.50;99.90
55211;DHT22;41082;52.822;6.666;2022-10-24T17:17:25;14.50;99.90
55211;DHT22;41082;52.822;6.666;2022-10-24T17:19:50;14.40;99.90
55211;DHT22;41082;52.822;6.666;2022-10-24T17:22:16;14.50;99.90
55211;DHT22;41082;52.822;6.666;2022-10-24T17:24:42;14.50;99.90
55211;DHT22;41082;52.822;6.666;2022-10-24T17:27:12;14.40;99.90
55211;DHT22;41082;52.822;6.666;2022-10-24T17:29:38;14.40;99.90
55211;DHT22;41082;52.822;6.666;2022-10-24T17:32:04;14.40;99.90
55211;DHT22;41082;52.822;6.666;2022-10-24T17:34:31;14.30;99.90
55211;DHT22;41082;52.822;6.666;2022-10-24T17:37:08;14.30;99.90
55211;DHT22;41082;52.822;6.666;2022-10-24T17:42:17;14.30;99.90
55211;DHT22;41082;52.822;6.666;2022-10-24T17:44:43;14.30;99.90
55211;DHT22;41082;52.822;6.666;2022-10-24T17:47:09;14.30;99.90
55211;DHT22;41082;52.822;6.666;2022-10-24T17:49:35;14.30;99.90
55211;DHT22;41082;52.822;6.666;2022-10-24T17:52:01;14.30;99.90
55211;DHT22;41082;52.822;6.666;2022-10-24T17:54:26;14.30;99.90
55211;DHT22;41082;52.822;6.666;2022-10-24T17:56:52;14.20;99.90
55211;DHT22;41082;52.822;6.666;2022-10-24T17:59:17;14.20;99.90
55211;DHT22;41082;52.822;6.666;2022-10-24T18:01:43;14.20;99.90
55211;DHT22;41082;52.822;6.666;2022-10-24T18:04:09;14.20;99.90
55211;DHT22;41082;52.822;6.666;2022-10-24T18:06:34;14.20;99.90
55211;DHT22;41082;52.822;6.666;2022-10-24T18:09:00;14.20;99.90
55211;DHT22;41082;52.822;6.666;2022-10-24T18:11:26;14.20;99.90
55211;DHT22;41082;52.822;6.666;2022-10-24T18:13:51;14.10;99.90
55211;DHT22;41082;52.822;6.666;2022-10-24T18:16:18;14.20;99.90
55211;DHT22;41082;52.822;6.666;2022-10-24T18:18:44;14.10;99.90
55211;DHT22;41082;52.822;6.666;2022-10-24T18:21:13;14.10;99.90
55211;DHT22;41082;52.822;6.666;2022-10-24T18:23:39;14.00;99.90
55211;DHT22;41082;52.822;6.666;2022-10-24T18:26:16;14.00;99.90
55211;DHT22;41082;52.822;6.666;2022-10-24T18:28:47;14.00;99.90
55211;DHT22;41082;52.822;6.666;2022-10-24T18:31:20;14.00;99.90